TimeCDT,TemperatureF,Dew PointF,Humidity,Sea Level PressureIn,VisibilityMPH,Wind Direction,Wind SpeedMPH,Gust SpeedMPH,PrecipitationIn,Events,Conditions,WindDirDegrees,DateUTC
12:53 AM,69.1,64.0,84,30.01,10.0,Calm,Calm,-,N/A,,Clear,0,2013-08-20 05:53:00
1:53 AM,68.0,64.0,87,30.00,10.0,SSW,4.6,-,N/A,,Clear,200,2013-08-20 06:53:00
2:53 AM,66.9,64.0,90,30.00,10.0,SSW,4.6,-,N/A,,Clear,200,2013-08-20 07:53:00
3:53 AM,66.9,63.0,87,29.99,10.0,South,4.6,-,N/A,,Clear,180,2013-08-20 08:53:00
4:53 AM,66.9,64.0,90,29.98,10.0,South,4.6,-,N/A,,Clear,180,2013-08-20 09:53:00
5:53 AM,66.9,63.0,87,30.00,10.0,Calm,Calm,-,N/A,,Clear,0,2013-08-20 10:53:00
6:53 AM,66.9,64.0,90,30.01,7.0,SE,5.8,-,N/A,,Clear,140,2013-08-20 11:53:00
7:53 AM,70.0,66.0,87,30.03,5.0,Calm,Calm,-,N/A,,Mostly Cloudy,0,2013-08-20 12:53:00
8:53 AM,73.0,66.0,79,30.04,10.0,SSW,6.9,-,N/A,,Clear,210,2013-08-20 13:53:00
9:53 AM,75.9,66.9,74,30.03,10.0,SSW,9.2,-,N/A,,Scattered Clouds,200,2013-08-20 14:53:00
10:53 AM,81.0,66.9,62,30.03,10.0,SSW,11.5,-,N/A,,Clear,210,2013-08-20 15:53:00
11:53 AM,82.9,66.9,58,30.02,10.0,South,12.7,19.6,N/A,,Partly Cloudy,190,2013-08-20 16:53:00
12:53 PM,84.9,66.0,53,30.01,10.0,SSW,12.7,-,N/A,,Clear,200,2013-08-20 17:53:00
1:53 PM,87.1,64.9,48,29.99,10.0,SSW,12.7,18.4,N/A,,Clear,210,2013-08-20 18:53:00
2:53 PM,88.0,66.0,48,29.98,10.0,SSW,9.2,-,N/A,,Clear,210,2013-08-20 19:53:00
3:53 PM,88.0,66.0,48,29.97,10.0,SSW,9.2,17.3,N/A,,Clear,210,2013-08-20 20:53:00
4:53 PM,87.1,66.0,49,29.96,10.0,South,11.5,-,N/A,,Clear,180,2013-08-20 21:53:00
5:53 PM,86.0,66.0,51,29.96,10.0,South,11.5,-,N/A,,Clear,170,2013-08-20 22:53:00
6:53 PM,84.0,66.0,55,29.95,10.0,South,10.4,-,N/A,,Clear,180,2013-08-20 23:53:00
7:53 PM,80.1,66.0,62,29.96,10.0,South,6.9,-,N/A,,Clear,180,2013-08-21 00:53:00
8:53 PM,75.0,66.0,73,29.97,10.0,SSE,5.8,-,N/A,,Clear,160,2013-08-21 01:53:00
9:53 PM,73.9,66.9,79,29.99,10.0,South,5.8,-,N/A,,Clear,180,2013-08-21 02:53:00
10:53 PM,73.0,66.9,81,30.00,10.0,South,6.9,-,N/A,,Clear,180,2013-08-21 03:53:00
11:53 PM,73.9,66.9,79,30.00,10.0,South,9.2,-,N/A,,Clear,180,2013-08-21 04:53:00